PWSweather.com
Personal Weather Stations
Station Observations
IMAZOWIE6
WarszawaPL

WarszawaPL

Lat: 52.27957, Lon: 21.05489

Elevation: 100

Station Type: WS1080

http://stacjapogody.waw.pl/

High Low Average
Temperature 50.9°F10.5°C 37.4°F3.0°C 42.6°F5.9°C
Dew Point 1.1°F-17.2°C -169.1°F-111.7°C -116.3°F-82.4°C
Winds 4.8 mph 7.7 kmh Calm Calm 2.0 mph N3.2 kmh N
Wind Gusts 8.2 mph13.2 kmh -- 3.0 mph4.8 kmh
Humidity 16% 10% 13%
Pressure 29.56 in1001.0 mb 29.37 in994.6 mb -
Precipitation 0.00 in0.0 mm - -
Hour Temp Dew Point Humidity Winds Wind Gusts Pressure Precip Precip Rate Daily Precip Total
12:06 AM 42.1°F5.6°C -10.6°F-23.7°C 10% 1.4 mph N2.3 kmh N 3.4 mph5.5 kmh 29.37 in994.6 mb 0.00 in0.0 mm 0.00 in0.0 mm 0.00 in0.0 mm
12:21 AM 42.1°F5.6°C -10.6°F-23.7°C 10% 2.8 mph N4.5 kmh N 6.2 mph10.0 kmh 29.37 in994.6 mb 0.00 in0.0 mm 0.00 in0.0 mm 0.00 in0.0 mm
12:36 AM 42.1°F5.6°C -168.6°F-111.4°C - 2.0 mph N3.2 kmh N 4.0 mph6.4 kmh 29.38 in994.9 mb 0.00 in0.0 mm 0.00 in0.0 mm 0.00 in0.0 mm
12:51 AM 42.1°F5.6°C -168.6°F-111.4°C - 2.0 mph N3.2 kmh N 5.4 mph8.7 kmh 29.39 in995.3 mb 0.00 in0.0 mm 0.00 in0.0 mm 0.00 in0.0 mm
01:06 AM 42.1°F5.6°C -168.6°F-111.4°C - 4.0 mph N6.4 kmh N 6.8 mph10.9 kmh 29.39 in995.3 mb 0.00 in0.0 mm 0.00 in0.0 mm 0.00 in0.0 mm
01:21 AM 41.2°F5.1°C -168.7°F-111.5°C - Calm Calm 1.4 mph2.3 kmh 29.40 in995.6 mb 0.01 in0.3 mm 0.05 in1.3 mm 0.01 in0.3 mm
01:36 AM 40.8°F4.9°C -11.6°F-24.2°C 10% 0.6 mph N1.0 kmh N 2.0 mph3.2 kmh 29.40 in995.6 mb 0.01 in0.3 mm 0.00 in0.0 mm 0.01 in0.3 mm
01:51 AM 40.3°F4.6°C -10.1°F-23.4°C 11% 3.4 mph N5.5 kmh N 8.2 mph13.2 kmh 29.40 in995.6 mb 0.01 in0.3 mm 0.00 in0.0 mm 0.01 in0.3 mm
02:06 AM 40.1°F4.5°C -10.3°F-23.5°C 11% 2.0 mph N3.2 kmh N 4.0 mph6.4 kmh 29.41 in995.9 mb 0.01 in0.3 mm 0.00 in0.0 mm 0.01 in0.3 mm
02:21 AM 39.9°F4.4°C -10.4°F-23.6°C 11% 2.0 mph N3.2 kmh N 4.0 mph6.4 kmh 29.42 in996.3 mb 0.00 in0.0 mm 0.00 in0.0 mm 0.01 in0.3 mm
02:36 AM 39.7°F4.3°C -10.5°F-23.6°C 11% 1.4 mph N2.3 kmh N 2.8 mph4.5 kmh 29.42 in996.3 mb 0.00 in0.0 mm 0.00 in0.0 mm 0.01 in0.3 mm
02:51 AM 39.6°F4.2°C -10.7°F-23.7°C 11% 1.4 mph N2.3 kmh N 3.4 mph5.5 kmh 29.42 in996.3 mb 0.00 in0.0 mm 0.00 in0.0 mm 0.01 in0.3 mm
03:06 AM 39.4°F4.1°C -10.8°F-23.8°C 11% 0.6 mph N1.0 kmh N 2.0 mph3.2 kmh 29.43 in996.6 mb 0.00 in0.0 mm 0.00 in0.0 mm 0.01 in0.3 mm
03:21 AM 39.2°F4.0°C -11.0°F-23.9°C 11% 1.4 mph N2.3 kmh N 3.4 mph5.5 kmh 29.43 in996.6 mb 0.00 in0.0 mm 0.00 in0.0 mm 0.01 in0.3 mm
03:36 AM 39.4°F4.1°C -9.1°F-22.8°C 12% 1.4 mph N2.3 kmh N 2.8 mph4.5 kmh 29.43 in996.6 mb 0.00 in0.0 mm 0.00 in0.0 mm 0.01 in0.3 mm
03:51 AM 39.6°F4.2°C -9.0°F-22.8°C 12% 1.4 mph N2.3 kmh N 2.8 mph4.5 kmh 29.43 in996.6 mb 0.00 in0.0 mm 0.00 in0.0 mm 0.01 in0.3 mm
04:06 AM 39.0°F3.9°C -9.4°F-23.0°C 12% 0.6 mph N1.0 kmh N 2.8 mph4.5 kmh 29.44 in997.0 mb 0.00 in0.0 mm 0.00 in0.0 mm 0.01 in0.3 mm
04:21 AM 39.2°F4.0°C -9.2°F-22.9°C 12% 1.4 mph N2.3 kmh N 2.0 mph3.2 kmh 29.44 in997.0 mb 0.00 in0.0 mm 0.00 in0.0 mm 0.01 in0.3 mm
04:36 AM 39.0°F3.9°C -7.8°F-22.1°C 13% 1.4 mph N2.3 kmh N 3.4 mph5.5 kmh 29.45 in997.3 mb 0.00 in0.0 mm 0.00 in0.0 mm 0.01 in0.3 mm
04:51 AM 38.8°F3.8°C -7.9°F-22.2°C 13% 2.8 mph N4.5 kmh N 4.8 mph7.7 kmh 29.45 in997.3 mb 0.00 in0.0 mm 0.00 in0.0 mm 0.01 in0.3 mm
05:06 AM 39.2°F4.0°C -6.1°F-21.2°C 14% 2.0 mph N3.2 kmh N 4.0 mph6.4 kmh 29.46 in997.6 mb 0.00 in0.0 mm 0.00 in0.0 mm 0.01 in0.3 mm
05:21 AM 39.4°F4.1°C -6.0°F-21.1°C 14% 1.4 mph N2.3 kmh N 2.8 mph4.5 kmh 29.45 in997.3 mb 0.00 in0.0 mm 0.00 in0.0 mm 0.01 in0.3 mm
05:36 AM 39.4°F4.1°C -6.0°F-21.1°C 14% 0.6 mph N1.0 kmh N 2.0 mph3.2 kmh 29.46 in997.6 mb 0.00 in0.0 mm 0.00 in0.0 mm 0.01 in0.3 mm
05:51 AM 39.6°F4.2°C -5.8°F-21.0°C 14% 1.4 mph N2.3 kmh N 2.8 mph4.5 kmh 29.46 in997.6 mb 0.00 in0.0 mm 0.00 in0.0 mm 0.01 in0.3 mm
06:06 AM 39.6°F4.2°C -5.8°F-21.0°C 14% 1.4 mph N2.3 kmh N 3.4 mph5.5 kmh 29.46 in997.6 mb 0.00 in0.0 mm 0.00 in0.0 mm 0.01 in0.3 mm
06:21 AM 39.9°F4.4°C -4.1°F-20.1°C 15% 2.8 mph N4.5 kmh N 6.2 mph10.0 kmh 29.46 in997.6 mb 0.00 in0.0 mm 0.00 in0.0 mm 0.01 in0.3 mm
06:36 AM 40.1°F4.5°C -4.0°F-20.0°C 15% 1.4 mph N2.3 kmh N 4.8 mph7.7 kmh 29.46 in997.6 mb 0.00 in0.0 mm 0.00 in0.0 mm 0.01 in0.3 mm
06:51 AM 40.3°F4.6°C -2.5°F-19.2°C 16% 2.8 mph N4.5 kmh N 4.8 mph7.7 kmh 29.47 in998.0 mb 0.00 in0.0 mm 0.00 in0.0 mm 0.01 in0.3 mm
07:06 AM 40.5°F4.7°C -2.4°F-19.1°C 16% 2.8 mph N4.5 kmh N 4.8 mph7.7 kmh 29.47 in998.0 mb 0.00 in0.0 mm 0.00 in0.0 mm 0.01 in0.3 mm
07:21 AM 40.3°F4.6°C -2.5°F-19.2°C 16% 1.4 mph N2.3 kmh N 4.0 mph6.4 kmh 29.47 in998.0 mb 0.00 in0.0 mm 0.00 in0.0 mm 0.01 in0.3 mm
07:36 AM 40.3°F4.6°C -3.9°F-19.9°C 15% 1.4 mph N2.3 kmh N 4.0 mph6.4 kmh 29.49 in998.6 mb 0.00 in0.0 mm 0.00 in0.0 mm 0.01 in0.3 mm
07:51 AM 40.6°F4.8°C -3.6°F-19.8°C 15% 2.8 mph N4.5 kmh N 5.4 mph8.7 kmh 29.49 in998.6 mb 0.00 in0.0 mm 0.00 in0.0 mm 0.01 in0.3 mm
08:06 AM 41.4°F5.2°C -3.0°F-19.4°C 15% 2.0 mph N3.2 kmh N 3.4 mph5.5 kmh 29.49 in998.6 mb 0.00 in0.0 mm 0.00 in0.0 mm 0.01 in0.3 mm
08:21 AM 44.2°F6.8°C -0.6°F-18.1°C 15% 2.8 mph N4.5 kmh N 5.4 mph8.7 kmh 29.50 in999.0 mb 0.00 in0.0 mm 0.00 in0.0 mm 0.01 in0.3 mm
08:36 AM 48.2°F9.0°C 1.1°F-17.2°C 14% 1.4 mph N2.3 kmh N 4.0 mph6.4 kmh 29.50 in999.0 mb 0.00 in0.0 mm 0.00 in0.0 mm 0.01 in0.3 mm
08:51 AM 50.9°F10.5°C -167.7°F-110.9°C - 2.0 mph N3.2 kmh N 3.4 mph5.5 kmh 29.51 in999.3 mb 0.00 in0.0 mm 0.00 in0.0 mm 0.01 in0.3 mm
09:06 AM 49.1°F9.5°C -167.9°F-111.1°C - 1.4 mph N2.3 kmh N 2.8 mph4.5 kmh 29.52 in999.7 mb 0.00 in0.0 mm 0.00 in0.0 mm 0.01 in0.3 mm
09:21 AM 45.1°F7.3°C -168.3°F-111.3°C - 2.8 mph N4.5 kmh N 5.4 mph8.7 kmh 29.52 in999.7 mb 0.00 in0.0 mm 0.00 in0.0 mm 0.01 in0.3 mm
09:36 AM 43.9°F6.6°C -168.4°F-111.3°C - 1.4 mph N2.3 kmh N 3.4 mph5.5 kmh 29.52 in999.7 mb 0.00 in0.0 mm 0.00 in0.0 mm 0.01 in0.3 mm
09:51 AM 42.8°F6.0°C -168.5°F-111.4°C - 3.4 mph N5.5 kmh N 6.2 mph10.0 kmh 29.53 in1000.0 mb 0.00 in0.0 mm 0.00 in0.0 mm 0.01 in0.3 mm
10:06 AM 42.4°F5.8°C -168.6°F-111.4°C - 1.4 mph N2.3 kmh N 2.8 mph4.5 kmh 29.53 in1000.0 mb 0.00 in0.0 mm 0.00 in0.0 mm 0.01 in0.3 mm
10:21 AM 41.9°F5.5°C -168.6°F-111.4°C - 0.6 mph N1.0 kmh N 3.4 mph5.5 kmh 29.53 in1000.0 mb 0.00 in0.0 mm 0.00 in0.0 mm 0.01 in0.3 mm
10:36 AM 43.3°F6.3°C -168.5°F-111.4°C - 4.0 mph N6.4 kmh N 6.8 mph10.9 kmh 29.54 in1000.3 mb 0.00 in0.0 mm 0.00 in0.0 mm 0.01 in0.3 mm
10:51 AM 44.6°F7.0°C -168.3°F-111.3°C - 4.0 mph N6.4 kmh N 7.4 mph11.9 kmh 29.54 in1000.3 mb 0.00 in0.0 mm 0.00 in0.0 mm 0.01 in0.3 mm
11:06 AM 45.1°F7.3°C -168.3°F-111.3°C - 3.4 mph N5.5 kmh N 6.2 mph10.0 kmh 29.55 in1000.7 mb 0.01 in0.3 mm 0.02 in0.5 mm 0.02 in0.5 mm
11:21 AM 46.6°F8.1°C -168.1°F-111.2°C - 1.4 mph N2.3 kmh N 2.8 mph4.5 kmh 29.54 in1000.3 mb 0.00 in0.0 mm 0.00 in0.0 mm 0.02 in0.5 mm
11:36 AM 47.5°F8.6°C -168.1°F-111.2°C - 1.4 mph N2.3 kmh N 4.8 mph7.7 kmh 29.54 in1000.3 mb 0.00 in0.0 mm 0.00 in0.0 mm 0.02 in0.5 mm
11:51 AM 46.9°F8.3°C -168.1°F-111.2°C - 4.0 mph N6.4 kmh N 7.4 mph11.9 kmh 29.55 in1000.7 mb 0.00 in0.0 mm 0.00 in0.0 mm 0.02 in0.5 mm
12:06 PM 46.2°F7.9°C -168.2°F-111.2°C - 2.8 mph N4.5 kmh N 4.8 mph7.7 kmh 29.56 in1001.0 mb 0.00 in0.0 mm 0.00 in0.0 mm 0.02 in0.5 mm
12:21 PM 45.1°F7.3°C -168.3°F-111.3°C - 3.4 mph N5.5 kmh N 7.4 mph11.9 kmh 29.56 in1001.0 mb 0.00 in0.0 mm 0.00 in0.0 mm 0.02 in0.5 mm
12:36 PM 45.0°F7.2°C -168.3°F-111.3°C - 1.4 mph N2.3 kmh N 4.0 mph6.4 kmh 29.55 in1000.7 mb 0.00 in0.0 mm 0.00 in0.0 mm 0.02 in0.5 mm
12:51 PM 45.5°F7.5°C -168.3°F-111.3°C - 2.0 mph N3.2 kmh N 4.8 mph7.7 kmh 29.55 in1000.7 mb 0.00 in0.0 mm 0.00 in0.0 mm 0.02 in0.5 mm
01:06 PM 46.8°F8.2°C -168.1°F-111.2°C - 1.4 mph N2.3 kmh N 2.8 mph4.5 kmh 29.55 in1000.7 mb 0.00 in0.0 mm 0.00 in0.0 mm 0.02 in0.5 mm
01:21 PM 48.0°F8.9°C -168.0°F-111.1°C - 2.8 mph N4.5 kmh N 6.8 mph10.9 kmh 29.54 in1000.3 mb 0.00 in0.0 mm 0.00 in0.0 mm 0.02 in0.5 mm
01:36 PM 48.6°F9.2°C -167.9°F-111.1°C - 3.4 mph N5.5 kmh N 6.8 mph10.9 kmh 29.53 in1000.0 mb 0.00 in0.0 mm 0.00 in0.0 mm 0.02 in0.5 mm
01:51 PM 48.7°F9.3°C -167.9°F-111.1°C - 2.0 mph N3.2 kmh N 4.0 mph6.4 kmh 29.53 in1000.0 mb 0.00 in0.0 mm 0.00 in0.0 mm 0.02 in0.5 mm
02:06 PM 48.7°F9.3°C -167.9°F-111.1°C - 1.4 mph N2.3 kmh N 4.8 mph7.7 kmh 29.53 in1000.0 mb 0.00 in0.0 mm 0.00 in0.0 mm 0.02 in0.5 mm
02:21 PM 48.6°F9.2°C -167.9°F-111.1°C - 2.0 mph N3.2 kmh N 4.0 mph6.4 kmh 29.54 in1000.3 mb 0.00 in0.0 mm 0.00 in0.0 mm 0.02 in0.5 mm
02:36 PM 48.4°F9.1°C -168.0°F-111.1°C - 3.4 mph N5.5 kmh N 6.2 mph10.0 kmh 29.54 in1000.3 mb 0.00 in0.0 mm 0.00 in0.0 mm 0.02 in0.5 mm
02:51 PM 48.7°F9.3°C -167.9°F-111.1°C - 4.8 mph N7.7 kmh N 7.4 mph11.9 kmh 29.54 in1000.3 mb 0.00 in0.0 mm 0.00 in0.0 mm 0.02 in0.5 mm
03:06 PM 48.4°F9.1°C -168.0°F-111.1°C - 4.0 mph N6.4 kmh N 6.2 mph10.0 kmh 29.54 in1000.3 mb 0.00 in0.0 mm 0.00 in0.0 mm 0.02 in0.5 mm
03:21 PM 47.5°F8.6°C -168.1°F-111.2°C - 2.8 mph N4.5 kmh N 5.4 mph8.7 kmh 29.54 in1000.3 mb 0.00 in0.0 mm 0.00 in0.0 mm 0.02 in0.5 mm
03:36 PM 47.5°F8.6°C -168.1°F-111.2°C - 2.0 mph N3.2 kmh N 4.8 mph7.7 kmh 29.54 in1000.3 mb 0.00 in0.0 mm 0.00 in0.0 mm 0.02 in0.5 mm
03:51 PM 47.3°F8.5°C -168.1°F-111.2°C - 3.4 mph N5.5 kmh N 5.4 mph8.7 kmh 29.54 in1000.3 mb 0.00 in0.0 mm 0.00 in0.0 mm 0.02 in0.5 mm
04:06 PM 46.6°F8.1°C -168.1°F-111.2°C - 1.4 mph N2.3 kmh N 4.0 mph6.4 kmh 29.53 in1000.0 mb 0.00 in0.0 mm 0.00 in0.0 mm 0.02 in0.5 mm
04:21 PM 46.0°F7.8°C -168.2°F-111.2°C - 0.6 mph N1.0 kmh N 2.0 mph3.2 kmh 29.53 in1000.0 mb 0.00 in0.0 mm 0.00 in0.0 mm 0.02 in0.5 mm
04:36 PM 45.9°F7.7°C -168.2°F-111.2°C - 1.4 mph N2.3 kmh N 3.4 mph5.5 kmh 29.53 in1000.0 mb 0.00 in0.0 mm 0.00 in0.0 mm 0.02 in0.5 mm
04:51 PM 45.3°F7.4°C -168.3°F-111.3°C - 0.6 mph N1.0 kmh N 2.0 mph3.2 kmh 29.53 in1000.0 mb 0.00 in0.0 mm 0.00 in0.0 mm 0.02 in0.5 mm
05:06 PM 45.0°F7.2°C -168.3°F-111.3°C - Calm Calm 1.4 mph2.3 kmh 29.53 in1000.0 mb 0.00 in0.0 mm 0.00 in0.0 mm 0.02 in0.5 mm
05:21 PM 43.7°F6.5°C -168.4°F-111.3°C - Calm Calm 0.6 mph1.0 kmh 29.53 in1000.0 mb 0.00 in0.0 mm 0.00 in0.0 mm 0.02 in0.5 mm
05:36 PM 42.6°F5.9°C -168.5°F-111.4°C - Calm Calm 0.6 mph1.0 kmh 29.53 in1000.0 mb 0.00 in0.0 mm 0.00 in0.0 mm 0.02 in0.5 mm
05:51 PM 42.6°F5.9°C -168.5°F-111.4°C - Calm Calm -- 29.53 in1000.0 mb 0.00 in0.0 mm 0.00 in0.0 mm 0.02 in0.5 mm
06:06 PM 42.6°F5.9°C -168.5°F-111.4°C - Calm Calm -- 29.53 in1000.0 mb 0.00 in0.0 mm 0.00 in0.0 mm 0.02 in0.5 mm
06:21 PM 43.0°F6.1°C -168.5°F-111.4°C - Calm Calm -- 29.52 in999.7 mb 0.00 in0.0 mm 0.00 in0.0 mm 0.02 in0.5 mm
06:36 PM 41.9°F5.5°C -168.6°F-111.4°C - Calm Calm -- 29.52 in999.7 mb 0.00 in0.0 mm 0.00 in0.0 mm 0.02 in0.5 mm
06:51 PM 41.4°F5.2°C -168.7°F-111.5°C - Calm Calm -- 29.52 in999.7 mb 0.00 in0.0 mm 0.00 in0.0 mm 0.02 in0.5 mm
07:06 PM 42.1°F5.6°C -168.6°F-111.4°C - Calm Calm 0.6 mph1.0 kmh 29.52 in999.7 mb 0.00 in0.0 mm 0.00 in0.0 mm 0.02 in0.5 mm
07:21 PM 42.1°F5.6°C -168.6°F-111.4°C - Calm Calm -- 29.52 in999.7 mb 0.00 in0.0 mm 0.00 in0.0 mm 0.02 in0.5 mm
07:36 PM 41.9°F5.5°C -168.6°F-111.4°C - Calm Calm 0.6 mph1.0 kmh 29.52 in999.7 mb 0.00 in0.0 mm 0.00 in0.0 mm 0.02 in0.5 mm
07:51 PM 41.7°F5.4°C -168.6°F-111.4°C - Calm Calm 1.4 mph2.3 kmh 29.51 in999.3 mb 0.00 in0.0 mm 0.00 in0.0 mm 0.02 in0.5 mm
08:06 PM 41.7°F5.4°C -168.6°F-111.4°C - Calm Calm 1.4 mph2.3 kmh 29.51 in999.3 mb 0.00 in0.0 mm 0.00 in0.0 mm 0.02 in0.5 mm
08:21 PM 41.5°F5.3°C -168.6°F-111.4°C - 0.6 mph N1.0 kmh N 2.0 mph3.2 kmh 29.51 in999.3 mb 0.00 in0.0 mm 0.00 in0.0 mm 0.02 in0.5 mm
08:36 PM 41.0°F5.0°C -168.7°F-111.5°C - Calm Calm 0.6 mph1.0 kmh 29.50 in999.0 mb 0.00 in0.0 mm 0.00 in0.0 mm 0.02 in0.5 mm
08:51 PM 40.6°F4.8°C -168.7°F-111.5°C - 0.6 mph N1.0 kmh N 2.0 mph3.2 kmh 29.49 in998.6 mb 0.00 in0.0 mm 0.00 in0.0 mm 0.02 in0.5 mm
09:06 PM 40.1°F4.5°C -168.8°F-111.6°C - Calm Calm 1.4 mph2.3 kmh 29.49 in998.6 mb 0.00 in0.0 mm 0.00 in0.0 mm 0.02 in0.5 mm
09:21 PM 39.4°F4.1°C -168.9°F-111.6°C - Calm Calm 0.6 mph1.0 kmh 29.49 in998.6 mb 0.00 in0.0 mm 0.00 in0.0 mm 0.02 in0.5 mm
09:36 PM 38.8°F3.8°C -168.9°F-111.6°C - Calm Calm 2.0 mph3.2 kmh 29.49 in998.6 mb 0.00 in0.0 mm 0.00 in0.0 mm 0.02 in0.5 mm
09:51 PM 38.8°F3.8°C -168.9°F-111.6°C - 0.6 mph N1.0 kmh N 2.8 mph4.5 kmh 29.49 in998.6 mb 0.00 in0.0 mm 0.00 in0.0 mm 0.02 in0.5 mm
10:06 PM 38.8°F3.8°C -168.9°F-111.6°C - Calm Calm 1.4 mph2.3 kmh 29.48 in998.3 mb 0.00 in0.0 mm 0.00 in0.0 mm 0.02 in0.5 mm
10:21 PM 38.3°F3.5°C -169.0°F-111.7°C - Calm Calm 1.4 mph2.3 kmh 29.47 in998.0 mb 0.00 in0.0 mm 0.00 in0.0 mm 0.02 in0.5 mm
10:36 PM 37.8°F3.2°C -169.0°F-111.7°C - 0.6 mph N1.0 kmh N 2.8 mph4.5 kmh 29.47 in998.0 mb 0.00 in0.0 mm 0.00 in0.0 mm 0.02 in0.5 mm
10:51 PM 37.8°F3.2°C -169.0°F-111.7°C - 1.4 mph N2.3 kmh N 4.8 mph7.7 kmh 29.46 in997.6 mb 0.00 in0.0 mm 0.00 in0.0 mm 0.02 in0.5 mm
11:06 PM 37.8°F3.2°C -169.0°F-111.7°C - 0.6 mph N1.0 kmh N 2.0 mph3.2 kmh 29.46 in997.6 mb 0.00 in0.0 mm 0.00 in0.0 mm 0.02 in0.5 mm
11:21 PM 37.6°F3.1°C -169.0°F-111.7°C - Calm Calm 1.4 mph2.3 kmh 29.46 in997.6 mb 0.00 in0.0 mm 0.00 in0.0 mm 0.02 in0.5 mm
11:36 PM 37.4°F3.0°C -169.1°F-111.7°C - 2.0 mph N3.2 kmh N 4.0 mph6.4 kmh 29.46 in997.6 mb 0.00 in0.0 mm 0.00 in0.0 mm 0.02 in0.5 mm
11:51 PM 37.6°F3.1°C -169.0°F-111.7°C - 0.6 mph N1.0 kmh N 3.4 mph5.5 kmh 29.45 in997.3 mb 0.00 in0.0 mm 0.00 in0.0 mm 0.02 in0.5 mm